Map

Track Data

SID SEASON NUMBER BASIN SUBBASIN NAME ISO_TIME NATURE LAT LON WMO_WIND WMO_PRES WMO_AGENCY TRACK_TYPE DIST2LAND LANDFALL IFLAG USA_AGENCY USA_ATCF_ID USA_LAT USA_LON USA_RECORD USA_STATUS USA_WIND USA_PRES USA_SSHS USA_R34_NE USA_R34_SE USA_R34_SW USA_R34_NW USA_R50_NE USA_R50_SE USA_R50_SW USA_R50_NW USA_R64_NE USA_R64_SE USA_R64_SW USA_R64_NW USA_POCI USA_ROCI USA_RMW USA_EYE TOKYO_LAT TOKYO_LON TOKYO_GRADE TOKYO_WIND TOKYO_PRES TOKYO_R50_DIR TOKYO_R50_LONG TOKYO_R50_SHORT TOKYO_R30_DIR TOKYO_R30_LONG TOKYO_R30_SHORT TOKYO_LAND CMA_LAT CMA_LON CMA_CAT CMA_WIND CMA_PRES HKO_LAT HKO_LON HKO_CAT HKO_WIND HKO_PRES NEWDELHI_LAT NEWDELHI_LON NEWDELHI_GRADE NEWDELHI_WIND NEWDELHI_PRES NEWDELHI_CI NEWDELHI_DP NEWDELHI_POCI REUNION_LAT REUNION_LON REUNION_TYPE REUNION_WIND REUNION_PRES REUNION_TNUM REUNION_CI REUNION_RMW REUNION_R34_NE REUNION_R34_SE REUNION_R34_SW REUNION_R34_NW REUNION_R50_NE REUNION_R50_SE REUNION_R50_SW REUNION_R50_NW REUNION_R64_NE REUNION_R64_SE REUNION_R64_SW REUNION_R64_NW BOM_LAT BOM_LON BOM_TYPE BOM_WIND BOM_PRES BOM_TNUM BOM_CI BOM_RMW BOM_R34_NE BOM_R34_SE BOM_R34_SW BOM_R34_NW BOM_R50_NE BOM_R50_SE BOM_R50_SW BOM_R50_NW BOM_R64_NE BOM_R64_SE BOM_R64_SW BOM_R64_NW BOM_ROCI BOM_POCI BOM_EYE BOM_POS_METHOD BOM_PRES_METHOD NADI_LAT NADI_LON NADI_CAT NADI_WIND NADI_PRES WELLINGTON_LAT WELLINGTON_LON WELLINGTON_WIND WELLINGTON_PRES DS824_LAT DS824_LON DS824_STAGE DS824_WIND DS824_PRES TD9636_LAT TD9636_LON TD9636_STAGE TD9636_WIND TD9636_PRES TD9635_LAT TD9635_LON TD9635_WIND TD9635_PRES TD9635_ROCI NEUMANN_LAT NEUMANN_LON NEUMANN_CLASS NEUMANN_WIND NEUMANN_PRES MLC_LAT MLC_LON MLC_CLASS MLC_WIND MLC_PRES USA_GUST BOM_GUST BOM_GUST_PER REUNION_GUST REUNION_GUST_PER USA_SEAHGT USA_SEARAD_NE USA_SEARAD_SE USA_SEARAD_SW USA_SEARAD_NW STORM_SPEED STORM_DIR
1984169N14257 1984 38 EP MM CRISTINA 1984-06-17 06:00:00 TS 14.0000 -103.300 30 hurdat_epa main 438 438 O_________O___ hurdat_epa EP031984 14.0000 -103.300 TD 30 -1 14.0000 -103.300 1 30 3 270
1984169N14257 1984 38 EP MM CRISTINA 1984-06-17 09:00:00 TS 14.0000 -103.432 main 443 443 P_________P___ EP031984 14.0000 -103.430 TD 32 -1 14.0000 -103.439 1 32 3 270
1984169N14257 1984 38 EP MM CRISTINA 1984-06-17 12:00:00 TS 14.0000 -103.600 35 hurdat_epa main 456 456 O_________O___ hurdat_epa EP031984 14.0000 -103.600 TS 35 0 14.0000 -103.600 2 35 4 270
1984169N14257 1984 38 EP MM CRISTINA 1984-06-17 15:00:00 TS 14.0000 -103.826 main 465 465 P_________P___ EP031984 14.0000 -103.835 TS 35 0 14.0000 -103.801 2 35 5 270
1984169N14257 1984 38 EP MM CRISTINA 1984-06-17 18:00:00 TS 14.0000 -104.085 35 hurdat_epa main 475 475 O_________P___ hurdat_epa EP031984 14.0000 -104.100 TS 35 0 13.9999 -104.039 2 35 5 270
1984169N14257 1984 38 EP MM CRISTINA 1984-06-17 21:00:00 TS 13.9999 -104.328 main 482 482 P_________P___ EP031984 13.9999 -104.335 TS 35 0 13.9999 -104.307 2 35 5 270
1984169N14257 1984 38 EP MM CRISTINA 1984-06-18 00:00:00 TS 14.0000 -104.600 35 hurdat_epa main 493 493 O_________O___ hurdat_epa EP031984 14.0000 -104.600 TS 35 0 14.0000 -104.600 2 35 6 270
1984169N14257 1984 38 EP MM CRISTINA 1984-06-18 03:00:00 TS 13.9990 -104.936 main 503 503 P_________P___ EP031984 14.0000 -104.943 TS 35 0 13.9960 -104.916 2 37 7 270
1984169N14257 1984 38 EP MM CRISTINA 1984-06-18 06:00:00 TS 13.9982 -105.288 35 hurdat_epa main 518 518 O_________P___ hurdat_epa EP031984 14.0000 -105.300 TS 35 0 13.9927 -105.250 2 40 6 270
1984169N14257 1984 38 EP MM CRISTINA 1984-06-18 09:00:00 TS 13.9982 -105.602 main 530 530 P_________P___ EP031984 13.9999 -105.608 TS 40 0 13.9929 -105.584 2 42 6 270
1984169N14257 1984 38 EP MM CRISTINA 1984-06-18 12:00:00 TS 14.0000 -105.900 45 hurdat_epa main 545 545 O_________O___ hurdat_epa EP031984 14.0000 -105.900 TS 45 0 14.0000 -105.900 2 45 6 270
1984169N14257 1984 38 EP MM CRISTINA 1984-06-18 15:00:00 TS 13.9978 -106.206 main 561 561 P_________P___ EP031984 13.9925 -106.215 TS 50 0 14.0136 -106.180 2 48 6 271
1984169N14257 1984 38 EP MM CRISTINA 1984-06-18 18:00:00 TS 14.0087 -106.484 55 hurdat_epa main 578 578 O_________P___ hurdat_epa EP031984 14.0000 -106.500 TS 55 0 14.0348 -106.438 2 52 5 276
1984169N14257 1984 38 EP MM CRISTINA 1984-06-18 21:00:00 TS 14.0477 -106.705 main 590 581 P_________P___ EP031984 14.0424 -106.715 TS 57 0 14.0636 -106.677 2 56 4 283
1984169N14257 1984 38 EP MM CRISTINA 1984-06-19 00:00:00 TS 14.1000 -106.900 60 hurdat_epa main 593 593 O_________O___ hurdat_epa EP031984 14.1000 -106.900 TS 60 0 14.1000 -106.900 2 60 4 285
1984169N14257 1984 38 EP MM CRISTINA 1984-06-19 03:00:00 TS 14.1482 -107.101 main 607 598 P_________P___ EP031984 14.1500 -107.100 TS 60 0 14.1430 -107.103 2 60 4 284
1984169N14257 1984 38 EP MM CRISTINA 1984-06-19 06:00:00 TS 14.1982 -107.298 60 hurdat_epa main 612 612 O_________P___ hurdat_epa EP031984 14.2000 -107.300 TS 60 0 14.1930 -107.293 2 60 4 285
1984169N14257 1984 38 EP MM CRISTINA 1984-06-19 09:00:00 TS 14.2491 -107.491 main 626 618 P_________P___ EP031984 14.2500 -107.493 TS 60 0 14.2465 -107.487 2 60 4 285
1984169N14257 1984 38 EP MM CRISTINA 1984-06-19 12:00:00 TS 14.3000 -107.700 60 hurdat_epa main 629 629 O_________O___ hurdat_epa EP031984 14.3000 -107.700 TS 60 0 14.3000 -107.700 2 60 4 281
1984169N14257 1984 38 EP MM CRISTINA 1984-06-19 15:00:00 TS 14.3347 -107.943 main 640 636 P_________P___ EP031984 14.3350 -107.943 TS 65 1 14.3337 -107.945 2 65 5 282
1984169N14257 1984 38 EP MM CRISTINA 1984-06-19 18:00:00 TS 14.4000 -108.200 70 hurdat_epa main 647 644 O_________O___ hurdat_epa EP031984 14.4000 -108.200 HU 70 1 14.4000 -108.200 3 70 5 294
1984169N14257 1984 38 EP MM CRISTINA 1984-06-19 21:00:00 TS 14.5489 -108.436 main 650 641 P_________P___ EP031984 14.5499 -108.435 HU 75 1 14.5458 -108.438 3 75 6 302
1984169N14257 1984 38 EP MM CRISTINA 1984-06-20 00:00:00 TS 14.7000 -108.700 80 hurdat_epa main 652 652 O_________O___ hurdat_epa EP031984 14.7000 -108.700 HU 80 1 14.7000 -108.700 4 80 6 292
1984169N14257 1984 38 EP MM CRISTINA 1984-06-20 03:00:00 TS 14.7763 -109.026 main 664 664 P_________P___ EP031984 14.7725 -109.028 HU 82 1 14.7877 -109.023 4 82 7 279
1984169N14257 1984 38 EP MM CRISTINA 1984-06-20 06:00:00 TS 14.8071 -109.398 85 hurdat_epa main 694 694 O_________P___ hurdat_epa EP031984 14.8000 -109.400 HU 85 2 14.8284 -109.392 4 85 7 274
1984169N14257 1984 38 EP MM CRISTINA 1984-06-20 09:00:00 TS 14.8243 -109.792 main 724 724 P_________P___ EP031984 14.8225 -109.792 HU 87 2 14.8300 -109.790 4 87 8 269
1984169N14257 1984 38 EP MM CRISTINA 1984-06-20 12:00:00 TS 14.8000 -110.200 90 hurdat_epa main 755 755 O_________O___ hurdat_epa EP031984 14.8000 -110.200 HU 90 2 14.8000 -110.200 4 90 8 262
1984169N14257 1984 38 EP MM CRISTINA 1984-06-20 15:00:00 TS 14.7130 -110.613 main 793 793 P_________P___ EP031984 14.7074 -110.600 HU 90 2 14.7297 -110.650 4 86 8 257
1984169N14257 1984 38 EP MM CRISTINA 1984-06-20 18:00:00 TS 14.6089 -111.025 90 hurdat_epa main 832 832 O_________P___ hurdat_epa EP031984 14.6000 -111.000 HU 90 2 14.6355 -111.098 4 82 8 258
1984169N14257 1984 38 EP MM CRISTINA 1984-06-20 21:00:00 TS 14.5328 -111.464 main 878 878 P_________P___ EP031984 14.5276 -111.453 HU 82 1 14.5485 -111.497 4 78 8 262
1984169N14257 1984 38 EP MM CRISTINA 1984-06-21 00:00:00 TS 14.5000 -111.800 75 hurdat_epa main 903 903 O_________O___ hurdat_epa EP031984 14.5000 -111.800 HU 75 1 14.5000 -111.800 4 75 4 269
1984169N14257 1984 38 EP MM CRISTINA 1984-06-21 03:00:00 TS 14.5243 -111.911 main 911 904 P_________P___ EP031984 14.5274 -111.902 HU 72 1 14.5152 -111.938 4 72 2 308
1984169N14257 1984 38 EP MM CRISTINA 1984-06-21 06:00:00 TS 14.5936 -111.921 70 hurdat_epa main 904 896 O_________P___ hurdat_epa EP031984 14.6000 -111.900 HU 70 1 14.5745 -111.982 4 70 2 345
1984169N14257 1984 38 EP MM CRISTINA 1984-06-21 09:00:00 TS 14.6816 -111.959 main 905 898 P_________P___ EP031984 14.6850 -111.950 HU 67 1 14.6716 -111.985 4 67 2 340
1984169N14257 1984 38 EP MM CRISTINA 1984-06-21 12:00:00 TS 14.8000 -112.000 65 hurdat_epa main 898 891 O_________O___ hurdat_epa EP031984 14.8000 -112.000 HU 65 1 14.8000 -112.000 4 65 3 343
1984169N14257 1984 38 EP MM CRISTINA 1984-06-21 15:00:00 TS 14.9358 -112.044 main 891 884 P_________P___ EP031984 14.9350 -112.028 HU 62 0 14.9381 -112.091 4 63 3 337
1984169N14257 1984 38 EP MM CRISTINA 1984-06-21 18:00:00 TS 15.1012 -112.126 60 hurdat_epa main 886 883 O_________P___ hurdat_epa EP031984 15.1000 -112.100 TS 60 0 15.1049 -112.205 4 62 4 326
1984169N14257 1984 38 EP MM CRISTINA 1984-06-21 21:00:00 TS 15.2874 -112.293 main 883 868 P_________P___ EP031984 15.2850 -112.277 TS 60 0 15.2943 -112.341 4 61 5 318
1984169N14257 1984 38 EP MM CRISTINA 1984-06-22 00:00:00 TS 15.5000 -112.500 60 hurdat_epa main 868 850 O_________O___ hurdat_epa EP031984 15.5000 -112.500 TS 60 0 15.5000 -112.500 2 60 6 320
1984169N14257 1984 38 EP MM CRISTINA 1984-06-22 03:00:00 TS 15.7401 -112.694 main 853 829 P_________P___ EP031984 15.7500 -112.700 TS 60 0 15.7106 -112.674 2 58 6 322
1984169N14257 1984 38 EP MM CRISTINA 1984-06-22 06:00:00 TS 15.9837 -112.893 60 hurdat_epa main 829 816 O_________P___ hurdat_epa EP031984 16.0000 -112.900 TS 60 0 15.9350 -112.870 2 57 6 320
1984169N14257 1984 38 EP MM CRISTINA 1984-06-22 09:00:00 TS 16.1917 -113.090 main 816 804 P_________P___ EP031984 16.2000 -113.093 TS 57 0 16.1669 -113.081 2 56 6 317
1984169N14257 1984 38 EP MM CRISTINA 1984-06-22 12:00:00 TS 16.4000 -113.300 55 hurdat_epa main 804 794 O_________O___ hurdat_epa EP031984 16.4000 -113.300 TS 55 0 16.4000 -113.300 2 55 6 316
1984169N14257 1984 38 EP MM CRISTINA 1984-06-22 15:00:00 TS 16.6427 -113.541 main 794 779 P_________P___ EP031984 16.6500 -113.550 TS 55 0 16.6209 -113.514 2 56 7 316
1984169N14257 1984 38 EP MM CRISTINA 1984-06-22 18:00:00 TS 16.8856 -113.784 55 hurdat_epa main 779 771 O_________P___ hurdat_epa EP031984 16.9000 -113.800 TS 55 0 16.8424 -113.735 2 57 6 316
1984169N14257 1984 38 EP MM CRISTINA 1984-06-22 21:00:00 TS 17.0919 -113.991 main 771 764 P_________P___ EP031984 17.0999 -114.000 TS 57 0 17.0677 -113.964 2 58 6 316
1984169N14257 1984 38 EP MM CRISTINA 1984-06-23 00:00:00 TS 17.3000 -114.200 60 hurdat_epa main 764 758 O_________O___ hurdat_epa EP031984 17.3000 -114.200 TS 60 0 17.3000 -114.200 2 60 6 316
1984169N14257 1984 38 EP MM CRISTINA 1984-06-23 03:00:00 TS 17.5415 -114.443 main 758 751 P_________P___ EP031984 17.5425 -114.443 TS 57 0 17.5387 -114.443 2 57 7 316
1984169N14257 1984 38 EP MM CRISTINA 1984-06-23 06:00:00 TS 17.7962 -114.698 55 hurdat_epa main 751 748 O_________P___ hurdat_epa EP031984 17.8000 -114.700 TS 55 0 17.7849 -114.693 2 55 7 316
1984169N14257 1984 38 EP MM CRISTINA 1984-06-23 09:00:00 TS 18.0472 -114.955 main 755 746 P_________P___ EP031984 18.0500 -114.958 TS 52 0 18.0387 -114.946 2 52 7 317
1984169N14257 1984 38 EP MM CRISTINA 1984-06-23 12:00:00 TS 18.3000 -115.200 50 hurdat_epa main 746 738 O_________O___ hurdat_epa EP031984 18.3000 -115.200 TS 50 0 18.3000 -115.200 2 50 7 320
1984169N14257 1984 38 EP MM CRISTINA 1984-06-23 15:00:00 TS 18.5538 -115.403 main 739 739 P_________P___ EP031984 18.5424 -115.393 TS 55 0 18.5879 -115.434 2 56 7 323
1984169N14257 1984 38 EP MM CRISTINA 1984-06-23 18:00:00 TS 18.8199 -115.618 60 hurdat_epa main 740 731 O_________P___ hurdat_epa EP031984 18.8000 -115.600 TS 60 0 18.8796 -115.670 2 62 7 321
1984169N14257 1984 38 EP MM CRISTINA 1984-06-23 21:00:00 TS 19.1198 -115.894 main 737 721 P_________P___ EP031984 19.1075 -115.885 TS 67 1 19.1565 -115.921 2 68 8 317
1984169N14257 1984 38 EP MM CRISTINA 1984-06-24 00:00:00 TS 19.4000 -116.200 75 hurdat_epa main 727 721 O_________O___ hurdat_epa EP031984 19.4000 -116.200 HU 75 1 19.4000 -116.200 4 75 8 312
1984169N14257 1984 38 EP MM CRISTINA 1984-06-24 03:00:00 TS 19.6229 -116.493 main 728 719 P_________P___ EP031984 19.6299 -116.485 HU 75 1 19.6022 -116.517 4 73 7 304
1984169N14257 1984 38 EP MM CRISTINA 1984-06-24 06:00:00 TS 19.7919 -116.816 75 hurdat_epa main 730 730 O_________P___ hurdat_epa EP031984 19.8000 -116.800 HU 75 1 19.7674 -116.863 4 72 7 294
1984169N14257 1984 38 EP MM CRISTINA 1984-06-24 09:00:00 TS 19.9167 -117.201 main 750 750 P_________P___ EP031984 19.9225 -117.193 HU 72 1 19.8990 -117.227 4 71 8 286
1984169N14257 1984 38 EP MM CRISTINA 1984-06-24 12:00:00 TS 20.0000 -117.600 70 hurdat_epa main 771 771 O_________O___ hurdat_epa EP031984 20.0000 -117.600 HU 70 1 20.0000 -117.600 4 70 7 282
1984169N14257 1984 38 EP MM CRISTINA 1984-06-24 15:00:00 TS 20.0616 -117.951 main 794 794 P_________P___ EP031984 20.0573 -117.950 HU 65 1 20.0743 -117.952 4 67 7 279
1984169N14257 1984 38 EP MM CRISTINA 1984-06-24 18:00:00 TS 20.1055 -118.303 60 hurdat_epa main 817 817 O_________P___ hurdat_epa EP031984 20.1000 -118.300 TS 60 0 20.1219 -118.313 4 65 7 278
1984169N14257 1984 38 EP MM CRISTINA 1984-06-24 21:00:00 TS 20.1576 -118.681 main 842 842 P_________P___ EP031984 20.1573 -118.677 TS 60 0 20.1585 -118.693 4 62 8 277
1984169N14257 1984 38 EP MM CRISTINA 1984-06-25 00:00:00 TS 20.2000 -119.100 60 hurdat_epa main 875 875 O_________O___ hurdat_epa EP031984 20.2000 -119.100 TS 60 0 20.2000 -119.100 2 60 8 273
1984169N14257 1984 38 EP MM CRISTINA 1984-06-25 03:00:00 TS 20.1987 -119.584 main 917 917 P_________P___ EP031984 20.1850 -119.593 TS 55 0 20.2396 -119.559 2 56 9 271
1984169N14257 1984 38 EP MM CRISTINA 1984-06-25 06:00:00 TS 20.2226 -120.086 50 hurdat_epa main 960 960 O_________P___ hurdat_epa EP031984 20.2000 -120.100 TS 50 0 20.2903 -120.043 2 52 9 278
1984169N14257 1984 38 EP MM CRISTINA 1984-06-25 09:00:00 TS 20.3269 -120.551 main 995 987 P_________P___ EP031984 20.3123 -120.558 TS 47 0 20.3708 -120.531 2 48 9 288
1984169N14257 1984 38 EP MM CRISTINA 1984-06-25 12:00:00 TS 20.5000 -121.000 45 hurdat_epa main 1004 1003 O_________O___ hurdat_epa EP031984 20.5000 -121.000 TS 45 0 20.5000 -121.000 2 45 9 295
1984169N14257 1984 38 EP MM CRISTINA 1984-06-25 15:00:00 TS 20.7240 -121.457 main 1022 1013 P_________P___ EP031984 20.7350 -121.465 TS 37 0 20.6909 -121.434 2 41 10 300
1984169N14257 1984 38 EP MM CRISTINA 1984-06-25 18:00:00 TS 20.9832 -121.885 30 hurdat_epa main 1023 1020 O_________P___ hurdat_epa EP031984 21.0000 -121.900 TD 30 -1 20.9327 -121.838 2 37 9 305
1984169N14257 1984 38 EP MM CRISTINA 1984-06-25 21:00:00 TS 21.2433 -122.258 main 1035 1026 P_________P___ EP031984 21.2551 -122.270 TD 30 -1 21.2081 -122.224 2 33 8 308
1984169N14257 1984 38 EP MM CRISTINA 1984-06-26 00:00:00 TS 21.5000 -122.600 30 hurdat_epa main 1033 O_________O___ hurdat_epa EP031984 21.5000 -122.600 TD 30 -1 21.5000 -122.600 1 30 8 309

About IBTrACS Database

This database is a web-friendly format of International Best Track Archive for Climate Stewardship (IBTrACS), a global best track data archive curated by NOAA dating back to 1842.

Updated: 2021-12-01